sensor_id;sensor_type;location;lat;lon;timestamp;temperature;humidity
1453;DHT22;720;47.738;7.998;2024-01-06T00:01:10;5.70;99.90
1453;DHT22;720;47.738;7.998;2024-01-06T00:03:37;5.70;99.90
1453;DHT22;720;47.738;7.998;2024-01-06T00:06:03;5.70;99.90
1453;DHT22;720;47.738;7.998;2024-01-06T00:08:30;5.70;99.90
1453;DHT22;720;47.738;7.998;2024-01-06T00:10:56;5.60;99.90
1453;DHT22;720;47.738;7.998;2024-01-06T00:13:22;5.50;99.90
1453;DHT22;720;47.738;7.998;2024-01-06T00:15:48;5.60;99.90
1453;DHT22;720;47.738;7.998;2024-01-06T00:18:13;5.60;99.90
1453;DHT22;720;47.738;7.998;2024-01-06T00:20:39;5.60;99.90
1453;DHT22;720;47.738;7.998;2024-01-06T00:23:05;5.60;99.90
1453;DHT22;720;47.738;7.998;2024-01-06T00:25:30;5.60;99.90
1453;DHT22;720;47.738;7.998;2024-01-06T00:27:56;5.60;99.90
1453;DHT22;720;47.738;7.998;2024-01-06T00:30:21;5.40;99.90
1453;DHT22;720;47.738;7.998;2024-01-06T00:32:47;5.40;99.90
1453;DHT22;720;47.738;7.998;2024-01-06T00:35:13;5.50;99.90
1453;DHT22;720;47.738;7.998;2024-01-06T00:37:38;5.50;99.90
1453;DHT22;720;47.738;7.998;2024-01-06T00:40:04;5.50;99.90
1453;DHT22;720;47.738;7.998;2024-01-06T00:42:30;5.40;99.90
1453;DHT22;720;47.738;7.998;2024-01-06T00:44:56;5.40;99.90
1453;DHT22;720;47.738;7.998;2024-01-06T00:47:21;5.40;99.90
1453;DHT22;720;47.738;7.998;2024-01-06T00:49:49;5.40;99.90
1453;DHT22;720;47.738;7.998;2024-01-06T00:52:15;5.20;99.90
1453;DHT22;720;47.738;7.998;2024-01-06T00:54:40;5.10;99.90
1453;DHT22;720;47.738;7.998;2024-01-06T00:57:06;5.20;99.90
1453;DHT22;720;47.738;7.998;2024-01-06T00:59:32;5.10;99.90
1453;DHT22;720;47.738;7.998;2024-01-06T01:01:57;5.20;99.90
1453;DHT22;720;47.738;7.998;2024-01-06T01:04:23;5.20;99.90
1453;DHT22;720;47.738;7.998;2024-01-06T01:06:49;5.30;99.90
1453;DHT22;720;47.738;7.998;2024-01-06T01:09:14;5.40;99.90
1453;DHT22;720;47.738;7.998;2024-01-06T01:11:41;5.40;99.90
1453;DHT22;720;47.738;7.998;2024-01-06T01:14:06;5.40;99.90
1453;DHT22;720;47.738;7.998;2024-01-06T01:16:32;5.30;99.90
1453;DHT22;720;47.738;7.998;2024-01-06T01:18:58;5.40;99.90
1453;DHT22;720;47.738;7.998;2024-01-06T01:21:24;5.40;99.90
1453;DHT22;720;47.738;7.998;2024-01-06T01:23:49;5.40;99.90
1453;DHT22;720;47.738;7.998;2024-01-06T01:26:15;5.40;99.90
1453;DHT22;720;47.738;7.998;2024-01-06T01:28:41;5.30;99.90
1453;DHT22;720;47.738;7.998;2024-01-06T01:31:06;5.30;99.90
1453;DHT22;720;47.738;7.998;2024-01-06T01:33:32;5.20;99.90
1453;DHT22;720;47.738;7.998;2024-01-06T01:35:57;5.10;99.90
1453;DHT22;720;47.738;7.998;2024-01-06T01:38:23;5.20;99.90
1453;DHT22;720;47.738;7.998;2024-01-06T01:40:49;5.20;99.90
1453;DHT22;720;47.738;7.998;2024-01-06T01:43:21;5.30;99.90
1453;DHT22;720;47.738;7.998;2024-01-06T01:45:55;5.40;99.90
1453;DHT22;720;47.738;7.998;2024-01-06T01:48:22;5.30;99.90
1453;DHT22;720;47.738;7.998;2024-01-06T01:50:49;5.20;99.90
1453;DHT22;720;47.738;7.998;2024-01-06T01:53:16;5.20;99.90
1453;DHT22;720;47.738;7.998;2024-01-06T01:55:42;5.10;99.90
1453;DHT22;720;47.738;7.998;2024-01-06T01:58:10;5.00;99.90
1453;DHT22;720;47.738;7.998;2024-01-06T02:00:37;5.10;99.90
1453;DHT22;720;47.738;7.998;2024-01-06T02:03:04;5.10;99.90
1453;DHT22;720;47.738;7.998;2024-01-06T02:05:30;5.20;99.90
1453;DHT22;720;47.738;7.998;2024-01-06T02:07:56;5.10;99.90
1453;DHT22;720;47.738;7.998;2024-01-06T02:10:22;5.20;99.90
1453;DHT22;720;47.738;7.998;2024-01-06T02:12:48;5.20;99.90
1453;DHT22;720;47.738;7.998;2024-01-06T02:15:14;5.20;99.90
1453;DHT22;720;47.738;7.998;2024-01-06T02:17:40;5.20;99.90
1453;DHT22;720;47.738;7.998;2024-01-06T02:20:07;5.10;99.90
1453;DHT22;720;47.738;7.998;2024-01-06T02:22:35;5.20;99.90
1453;DHT22;720;47.738;7.998;2024-01-06T02:25:01;5.20;99.90
1453;DHT22;720;47.738;7.998;2024-01-06T02:27:27;5.20;99.90
1453;DHT22;720;47.738;7.998;2024-01-06T02:29:53;5.20;99.90
1453;DHT22;720;47.738;7.998;2024-01-06T02:32:18;5.30;99.90
1453;DHT22;720;47.738;7.998;2024-01-06T02:34:44;5.20;99.90
1453;DHT22;720;47.738;7.998;2024-01-06T02:37:09;5.20;99.90
1453;DHT22;720;47.738;7.998;2024-01-06T02:39:35;5.30;99.90
1453;DHT22;720;47.738;7.998;2024-01-06T02:42:01;5.20;99.90
1453;DHT22;720;47.738;7.998;2024-01-06T02:44:26;5.20;99.90
1453;DHT22;720;47.738;7.998;2024-01-06T02:46:52;5.20;99.90
1453;DHT22;720;47.738;7.998;2024-01-06T02:49:19;5.30;99.90
1453;DHT22;720;47.738;7.998;2024-01-06T02:51:45;5.30;99.90
1453;DHT22;720;47.738;7.998;2024-01-06T02:54:10;5.30;99.90
1453;DHT22;720;47.738;7.998;2024-01-06T02:56:36;5.30;99.90
1453;DHT22;720;47.738;7.998;2024-01-06T02:59:03;5.20;99.90
1453;DHT22;720;47.738;7.998;2024-01-06T03:01:29;5.10;99.90
1453;DHT22;720;47.738;7.998;2024-01-06T03:03:57;5.10;99.90
1453;DHT22;720;47.738;7.998;2024-01-06T03:06:22;5.20;99.90
1453;DHT22;720;47.738;7.998;2024-01-06T03:08:48;5.20;99.90
1453;DHT22;720;47.738;7.998;2024-01-06T03:11:14;5.20;99.90
1453;DHT22;720;47.738;7.998;2024-01-06T03:13:40;5.20;99.90
1453;DHT22;720;47.738;7.998;2024-01-06T03:16:05;5.10;99.90
1453;DHT22;720;47.738;7.998;2024-01-06T03:18:31;5.10;99.90
1453;DHT22;720;47.738;7.998;2024-01-06T03:20:57;5.10;99.90
1453;DHT22;720;47.738;7.998;2024-01-06T03:23:22;5.10;99.90
1453;DHT22;720;47.738;7.998;2024-01-06T03:25:51;5.10;99.90
1453;DHT22;720;47.738;7.998;2024-01-06T03:28:17;5.10;99.90
1453;DHT22;720;47.738;7.998;2024-01-06T03:30:43;5.10;99.90
1453;DHT22;720;47.738;7.998;2024-01-06T03:33:08;5.20;99.90
1453;DHT22;720;47.738;7.998;2024-01-06T03:35:34;5.10;99.90
1453;DHT22;720;47.738;7.998;2024-01-06T03:38:00;5.10;99.90
1453;DHT22;720;47.738;7.998;2024-01-06T03:40:26;5.10;99.90
1453;DHT22;720;47.738;7.998;2024-01-06T03:42:51;5.00;99.90
1453;DHT22;720;47.738;7.998;2024-01-06T03:45:19;5.20;99.90
1453;DHT22;720;47.738;7.998;2024-01-06T03:47:44;5.20;99.90
1453;DHT22;720;47.738;7.998;2024-01-06T03:50:10;5.20;99.90
1453;DHT22;720;47.738;7.998;2024-01-06T03:52:37;5.20;99.90
1453;DHT22;720;47.738;7.998;2024-01-06T03:55:03;5.10;99.90
1453;DHT22;720;47.738;7.998;2024-01-06T03:57:29;5.00;99.90
1453;DHT22;720;47.738;7.998;2024-01-06T03:59:55;5.00;99.90
1453;DHT22;720;47.738;7.998;2024-01-06T04:02:21;5.00;99.90
1453;DHT22;720;47.738;7.998;2024-01-06T04:04:47;5.00;99.90
1453;DHT22;720;47.738;7.998;2024-01-06T04:07:12;5.10;99.90
1453;DHT22;720;47.738;7.998;2024-01-06T04:09:41;5.10;99.90
1453;DHT22;720;47.738;7.998;2024-01-06T04:12:07;5.10;99.90
1453;DHT22;720;47.738;7.998;2024-01-06T04:14:32;5.10;99.90
1453;DHT22;720;47.738;7.998;2024-01-06T04:16:58;5.20;99.90
1453;DHT22;720;47.738;7.998;2024-01-06T04:19:24;5.20;99.90
1453;DHT22;720;47.738;7.998;2024-01-06T04:21:49;5.10;99.90
1453;DHT22;720;47.738;7.998;2024-01-06T04:24:15;5.10;99.90
1453;DHT22;720;47.738;7.998;2024-01-06T04:26:41;4.90;99.90
1453;DHT22;720;47.738;7.998;2024-01-06T04:29:10;4.80;99.90
1453;DHT22;720;47.738;7.998;2024-01-06T04:31:36;4.90;99.90
1453;DHT22;720;47.738;7.998;2024-01-06T04:34:01;5.00;99.90
1453;DHT22;720;47.738;7.998;2024-01-06T04:36:28;5.00;99.90
1453;DHT22;720;47.738;7.998;2024-01-06T04:38:54;5.00;99.90
1453;DHT22;720;47.738;7.998;2024-01-06T04:41:20;4.90;99.90
1453;DHT22;720;47.738;7.998;2024-01-06T04:43:46;4.80;99.90
1453;DHT22;720;47.738;7.998;2024-01-06T04:46:11;4.80;99.90
1453;DHT22;720;47.738;7.998;2024-01-06T04:48:40;4.80;99.90
1453;DHT22;720;47.738;7.998;2024-01-06T04:51:05;4.70;99.90
1453;DHT22;720;47.738;7.998;2024-01-06T04:53:38;4.50;99.90
1453;DHT22;720;47.738;7.998;2024-01-06T04:56:03;4.50;99.90
1453;DHT22;720;47.738;7.998;2024-01-06T04:58:29;4.60;99.90
1453;DHT22;720;47.738;7.998;2024-01-06T05:00:55;4.70;99.90
1453;DHT22;720;47.738;7.998;2024-01-06T05:03:20;4.70;99.90
1453;DHT22;720;47.738;7.998;2024-01-06T05:05:46;4.80;99.90
1453;DHT22;720;47.738;7.998;2024-01-06T05:08:12;4.80;99.90
1453;DHT22;720;47.738;7.998;2024-01-06T05:10:38;4.70;99.90
1453;DHT22;720;47.738;7.998;2024-01-06T05:13:03;4.60;99.90
1453;DHT22;720;47.738;7.998;2024-01-06T05:15:29;4.60;99.90
1453;DHT22;720;47.738;7.998;2024-01-06T05:17:55;4.60;99.90
1453;DHT22;720;47.738;7.998;2024-01-06T05:20:20;4.60;99.90
1453;DHT22;720;47.738;7.998;2024-01-06T05:22:46;4.70;99.90
1453;DHT22;720;47.738;7.998;2024-01-06T05:25:12;4.80;99.90
1453;DHT22;720;47.738;7.998;2024-01-06T05:27:37;4.90;99.90
1453;DHT22;720;47.738;7.998;2024-01-06T05:30:03;4.90;99.90
1453;DHT22;720;47.738;7.998;2024-01-06T05:32:29;4.90;99.90
1453;DHT22;720;47.738;7.998;2024-01-06T05:34:54;4.80;99.90
1453;DHT22;720;47.738;7.998;2024-01-06T05:37:20;4.80;99.90
1453;DHT22;720;47.738;7.998;2024-01-06T05:39:46;4.80;99.90
1453;DHT22;720;47.738;7.998;2024-01-06T05:42:13;4.80;99.90
1453;DHT22;720;47.738;7.998;2024-01-06T05:44:38;4.80;99.90
1453;DHT22;720;47.738;7.998;2024-01-06T05:47:04;4.80;99.90
1453;DHT22;720;47.738;7.998;2024-01-06T05:49:30;4.80;99.90
1453;DHT22;720;47.738;7.998;2024-01-06T05:51:55;4.80;99.90
1453;DHT22;720;47.738;7.998;2024-01-06T05:54:21;4.70;99.90
1453;DHT22;720;47.738;7.998;2024-01-06T05:56:47;4.70;99.90
1453;DHT22;720;47.738;7.998;2024-01-06T05:59:12;4.60;99.90
1453;DHT22;720;47.738;7.998;2024-01-06T06:01:38;4.60;99.90
1453;DHT22;720;47.738;7.998;2024-01-06T06:04:03;4.60;99.90
1453;DHT22;720;47.738;7.998;2024-01-06T06:06:30;4.60;99.90
1453;DHT22;720;47.738;7.998;2024-01-06T06:08:55;4.60;99.90
1453;DHT22;720;47.738;7.998;2024-01-06T06:11:21;4.60;99.90
1453;DHT22;720;47.738;7.998;2024-01-06T06:13:47;4.60;99.90
1453;DHT22;720;47.738;7.998;2024-01-06T06:16:13;4.60;99.90
1453;DHT22;720;47.738;7.998;2024-01-06T06:18:39;4.70;99.90
1453;DHT22;720;47.738;7.998;2024-01-06T06:21:06;4.70;99.90
1453;DHT22;720;47.738;7.998;2024-01-06T06:23:32;4.60;99.90
1453;DHT22;720;47.738;7.998;2024-01-06T06:25:57;4.60;99.90
1453;DHT22;720;47.738;7.998;2024-01-06T06:28:23;4.50;99.90
1453;DHT22;720;47.738;7.998;2024-01-06T06:30:49;4.40;99.90
1453;DHT22;720;47.738;7.998;2024-01-06T06:33:14;4.40;99.90
1453;DHT22;720;47.738;7.998;2024-01-06T06:35:40;4.50;99.90
1453;DHT22;720;47.738;7.998;2024-01-06T06:38:06;4.50;99.90
1453;DHT22;720;47.738;7.998;2024-01-06T06:40:31;4.60;99.90
1453;DHT22;720;47.738;7.998;2024-01-06T06:42:57;4.60;99.90
1453;DHT22;720;47.738;7.998;2024-01-06T06:45:23;4.60;99.90
1453;DHT22;720;47.738;7.998;2024-01-06T06:47:49;4.50;99.90
1453;DHT22;720;47.738;7.998;2024-01-06T06:50:18;4.50;99.90
1453;DHT22;720;47.738;7.998;2024-01-06T06:52:46;4.40;99.90
1453;DHT22;720;47.738;7.998;2024-01-06T06:55:12;4.30;99.90
1453;DHT22;720;47.738;7.998;2024-01-06T06:57:38;4.30;99.90
1453;DHT22;720;47.738;7.998;2024-01-06T07:00:04;4.30;99.90
1453;DHT22;720;47.738;7.998;2024-01-06T07:02:33;4.30;99.90
1453;DHT22;720;47.738;7.998;2024-01-06T07:04:58;4.20;99.90
1453;DHT22;720;47.738;7.998;2024-01-06T07:07:24;4.30;99.90
1453;DHT22;720;47.738;7.998;2024-01-06T07:09:50;4.20;99.90
1453;DHT22;720;47.738;7.998;2024-01-06T07:12:15;4.20;99.90
1453;DHT22;720;47.738;7.998;2024-01-06T07:14:41;4.10;99.90
1453;DHT22;720;47.738;7.998;2024-01-06T07:17:06;4.00;99.90
1453;DHT22;720;47.738;7.998;2024-01-06T07:19:34;4.20;99.90
1453;DHT22;720;47.738;7.998;2024-01-06T07:21:59;4.30;99.90
1453;DHT22;720;47.738;7.998;2024-01-06T07:24:25;4.30;99.90
1453;DHT22;720;47.738;7.998;2024-01-06T07:26:52;4.30;99.90
1453;DHT22;720;47.738;7.998;2024-01-06T07:29:18;4.40;99.90
1453;DHT22;720;47.738;7.998;2024-01-06T07:31:44;4.50;99.90
1453;DHT22;720;47.738;7.998;2024-01-06T07:34:10;4.50;99.90
1453;DHT22;720;47.738;7.998;2024-01-06T07:36:35;4.50;99.90
1453;DHT22;720;47.738;7.998;2024-01-06T07:39:01;4.50;99.90
1453;DHT22;720;47.738;7.998;2024-01-06T07:41:28;4.60;99.90
1453;DHT22;720;47.738;7.998;2024-01-06T07:43:56;4.60;99.90
1453;DHT22;720;47.738;7.998;2024-01-06T07:46:21;4.60;99.90
1453;DHT22;720;47.738;7.998;2024-01-06T07:48:47;4.60;99.90
1453;DHT22;720;47.738;7.998;2024-01-06T07:51:12;4.50;99.90
1453;DHT22;720;47.738;7.998;2024-01-06T07:53:38;4.50;99.90
1453;DHT22;720;47.738;7.998;2024-01-06T07:56:04;4.50;99.90
1453;DHT22;720;47.738;7.998;2024-01-06T07:58:30;4.50;99.90
1453;DHT22;720;47.738;7.998;2024-01-06T08:00:55;4.50;99.90
1453;DHT22;720;47.738;7.998;2024-01-06T08:03:21;4.60;99.90
1453;DHT22;720;47.738;7.998;2024-01-06T08:05:46;4.80;99.90
1453;DHT22;720;47.738;7.998;2024-01-06T08:08:12;4.80;99.90
1453;DHT22;720;47.738;7.998;2024-01-06T08:10:40;4.70;99.90
1453;DHT22;720;47.738;7.998;2024-01-06T08:13:05;4.80;99.90
1453;DHT22;720;47.738;7.998;2024-01-06T08:15:31;4.90;99.90
1453;DHT22;720;47.738;7.998;2024-01-06T08:17:57;4.80;99.90
1453;DHT22;720;47.738;7.998;2024-01-06T08:20:23;4.80;99.90
1453;DHT22;720;47.738;7.998;2024-01-06T08:22:48;4.90;99.90
1453;DHT22;720;47.738;7.998;2024-01-06T08:25:14;5.00;99.90
1453;DHT22;720;47.738;7.998;2024-01-06T08:27:43;5.00;99.90
1453;DHT22;720;47.738;7.998;2024-01-06T08:30:09;5.10;99.90
1453;DHT22;720;47.738;7.998;2024-01-06T08:32:34;5.10;99.90
1453;DHT22;720;47.738;7.998;2024-01-06T08:35:00;5.10;99.90
1453;DHT22;720;47.738;7.998;2024-01-06T08:37:26;5.10;99.90
1453;DHT22;720;47.738;7.998;2024-01-06T08:39:51;5.10;99.90
1453;DHT22;720;47.738;7.998;2024-01-06T08:42:17;5.10;99.90
1453;DHT22;720;47.738;7.998;2024-01-06T08:44:43;5.00;99.90
1453;DHT22;720;47.738;7.998;2024-01-06T08:47:09;5.00;99.90
1453;DHT22;720;47.738;7.998;2024-01-06T08:49:35;5.00;99.90
1453;DHT22;720;47.738;7.998;2024-01-06T08:52:00;5.00;99.90
1453;DHT22;720;47.738;7.998;2024-01-06T08:54:26;4.90;99.90
1453;DHT22;720;47.738;7.998;2024-01-06T08:56:52;5.00;99.90
1453;DHT22;720;47.738;7.998;2024-01-06T08:59:18;5.00;99.90
1453;DHT22;720;47.738;7.998;2024-01-06T09:01:43;5.00;99.90
1453;DHT22;720;47.738;7.998;2024-01-06T09:04:09;5.00;99.90
1453;DHT22;720;47.738;7.998;2024-01-06T09:06:36;5.20;99.90
1453;DHT22;720;47.738;7.998;2024-01-06T09:09:02;5.20;99.90
1453;DHT22;720;47.738;7.998;2024-01-06T09:11:28;5.20;99.90
1453;DHT22;720;47.738;7.998;2024-01-06T09:13:53;5.30;99.90
1453;DHT22;720;47.738;7.998;2024-01-06T09:16:19;5.40;99.90
1453;DHT22;720;47.738;7.998;2024-01-06T09:18:45;5.40;99.90
1453;DHT22;720;47.738;7.998;2024-01-06T09:21:11;5.40;99.90
1453;DHT22;720;47.738;7.998;2024-01-06T09:23:36;5.30;99.90
1453;DHT22;720;47.738;7.998;2024-01-06T09:26:02;5.30;99.90
1453;DHT22;720;47.738;7.998;2024-01-06T09:28:28;5.40;99.90
1453;DHT22;720;47.738;7.998;2024-01-06T09:30:54;5.50;99.90
1453;DHT22;720;47.738;7.998;2024-01-06T09:33:22;5.60;99.90
1453;DHT22;720;47.738;7.998;2024-01-06T09:35:47;5.70;99.90
1453;DHT22;720;47.738;7.998;2024-01-06T09:38:13;5.90;99.90
1453;DHT22;720;47.738;7.998;2024-01-06T09:40:43;6.00;99.90
1453;DHT22;720;47.738;7.998;2024-01-06T09:43:10;5.90;99.90
1453;DHT22;720;47.738;7.998;2024-01-06T09:45:37;6.00;99.90
1453;DHT22;720;47.738;7.998;2024-01-06T09:48:11;6.00;99.90
1453;DHT22;720;47.738;7.998;2024-01-06T09:50:40;5.90;99.90
1453;DHT22;720;47.738;7.998;2024-01-06T09:53:08;5.90;99.90
1453;DHT22;720;47.738;7.998;2024-01-06T09:55:35;5.80;99.90
1453;DHT22;720;47.738;7.998;2024-01-06T09:58:01;5.70;99.90
1453;DHT22;720;47.738;7.998;2024-01-06T10:00:27;5.70;99.90
1453;DHT22;720;47.738;7.998;2024-01-06T10:02:54;5.70;99.90
1453;DHT22;720;47.738;7.998;2024-01-06T10:05:20;5.70;99.90
1453;DHT22;720;47.738;7.998;2024-01-06T10:07:46;5.80;99.90
1453;DHT22;720;47.738;7.998;2024-01-06T10:10:13;5.80;99.90
1453;DHT22;720;47.738;7.998;2024-01-06T10:12:39;5.90;99.90
1453;DHT22;720;47.738;7.998;2024-01-06T10:15:06;6.00;99.90
1453;DHT22;720;47.738;7.998;2024-01-06T10:17:33;6.20;99.90
1453;DHT22;720;47.738;7.998;2024-01-06T10:20:02;6.20;99.90
1453;DHT22;720;47.738;7.998;2024-01-06T10:22:28;6.30;99.90
1453;DHT22;720;47.738;7.998;2024-01-06T10:24:55;6.40;99.90
1453;DHT22;720;47.738;7.998;2024-01-06T10:27:21;6.40;99.90
1453;DHT22;720;47.738;7.998;2024-01-06T10:29:47;6.50;99.90
1453;DHT22;720;47.738;7.998;2024-01-06T10:32:13;6.50;99.70
1453;DHT22;720;47.738;7.998;2024-01-06T10:34:38;6.50;99.90
1453;DHT22;720;47.738;7.998;2024-01-06T10:37:05;6.60;99.90
1453;DHT22;720;47.738;7.998;2024-01-06T10:39:31;6.70;99.80
1453;DHT22;720;47.738;7.998;2024-01-06T10:41:57;6.90;99.90
1453;DHT22;720;47.738;7.998;2024-01-06T10:44:24;7.10;99.10
1453;DHT22;720;47.738;7.998;2024-01-06T10:46:51;7.20;98.70
1453;DHT22;720;47.738;7.998;2024-01-06T10:49:20;7.40;98.30
1453;DHT22;720;47.738;7.998;2024-01-06T10:51:48;7.40;97.30
1453;DHT22;720;47.738;7.998;2024-01-06T10:54:14;7.40;97.60
1453;DHT22;720;47.738;7.998;2024-01-06T10:56:43;7.10;95.50
1453;DHT22;720;47.738;7.998;2024-01-06T10:59:11;6.90;96.10
1453;DHT22;720;47.738;7.998;2024-01-06T11:01:37;6.80;96.30
1453;DHT22;720;47.738;7.998;2024-01-06T11:04:04;6.70;95.90
1453;DHT22;720;47.738;7.998;2024-01-06T11:06:32;6.70;96.20
1453;DHT22;720;47.738;7.998;2024-01-06T11:09:06;6.70;97.00
1453;DHT22;720;47.738;7.998;2024-01-06T11:11:35;6.60;96.10
1453;DHT22;720;47.738;7.998;2024-01-06T11:14:19;6.60;96.40
1453;DHT22;720;47.738;7.998;2024-01-06T11:16:45;6.70;96.90
1453;DHT22;720;47.738;7.998;2024-01-06T11:22:38;6.80;96.50
1453;DHT22;720;47.738;7.998;2024-01-06T11:25:17;6.90;96.20
1453;DHT22;720;47.738;7.998;2024-01-06T11:27:44;6.90;95.60
1453;DHT22;720;47.738;7.998;2024-01-06T11:30:24;6.90;96.00
1453;DHT22;720;47.738;7.998;2024-01-06T11:32:51;6.80;95.20
1453;DHT22;720;47.738;7.998;2024-01-06T11:35:19;6.80;95.10
1453;DHT22;720;47.738;7.998;2024-01-06T11:43:07;6.70;95.30
1453;DHT22;720;47.738;7.998;2024-01-06T11:45:34;6.50;94.40
1453;DHT22;720;47.738;7.998;2024-01-06T11:48:05;6.40;95.20
1453;DHT22;720;47.738;7.998;2024-01-06T11:50:35;6.40;95.70
1453;DHT22;720;47.738;7.998;2024-01-06T11:53:02;6.40;96.30
1453;DHT22;720;47.738;7.998;2024-01-06T11:55:28;6.40;95.70
1453;DHT22;720;47.738;7.998;2024-01-06T11:57:58;6.40;95.80
1453;DHT22;720;47.738;7.998;2024-01-06T12:00:27;6.50;96.10
1453;DHT22;720;47.738;7.998;2024-01-06T12:02:58;6.50;95.80
1453;DHT22;720;47.738;7.998;2024-01-06T12:05:25;6.50;95.90
1453;DHT22;720;47.738;7.998;2024-01-06T12:07:56;6.50;96.30
1453;DHT22;720;47.738;7.998;2024-01-06T12:10:22;6.50;95.40
1453;DHT22;720;47.738;7.998;2024-01-06T12:13:02;6.50;95.80
1453;DHT22;720;47.738;7.998;2024-01-06T12:15:30;6.50;95.70
1453;DHT22;720;47.738;7.998;2024-01-06T12:17:57;6.40;95.50
1453;DHT22;720;47.738;7.998;2024-01-06T12:20:24;6.50;95.40
1453;DHT22;720;47.738;7.998;2024-01-06T12:22:53;6.50;95.50
1453;DHT22;720;47.738;7.998;2024-01-06T12:25:23;6.60;95.20
1453;DHT22;720;47.738;7.998;2024-01-06T12:27:50;6.60;95.10
1453;DHT22;720;47.738;7.998;2024-01-06T12:30:20;6.50;95.30
1453;DHT22;720;47.738;7.998;2024-01-06T12:32:47;6.40;95.40
1453;DHT22;720;47.738;7.998;2024-01-06T12:35:15;6.40;96.20
1453;DHT22;720;47.738;7.998;2024-01-06T12:37:44;6.40;95.90
1453;DHT22;720;47.738;7.998;2024-01-06T12:40:13;6.50;95.50
1453;DHT22;720;47.738;7.998;2024-01-06T12:42:42;6.50;95.20
1453;DHT22;720;47.738;7.998;2024-01-06T12:45:08;6.40;95.20
1453;DHT22;720;47.738;7.998;2024-01-06T12:47:35;6.40;95.30
1453;DHT22;720;47.738;7.998;2024-01-06T12:50:00;6.30;95.10
1453;DHT22;720;47.738;7.998;2024-01-06T12:52:26;6.30;95.60
1453;DHT22;720;47.738;7.998;2024-01-06T12:54:52;6.30;95.60
1453;DHT22;720;47.738;7.998;2024-01-06T12:57:18;6.20;96.10
1453;DHT22;720;47.738;7.998;2024-01-06T12:59:43;6.30;96.20
1453;DHT22;720;47.738;7.998;2024-01-06T13:02:09;6.40;95.90
1453;DHT22;720;47.738;7.998;2024-01-06T13:04:35;6.30;96.00
1453;DHT22;720;47.738;7.998;2024-01-06T13:07:01;6.30;95.60
1453;DHT22;720;47.738;7.998;2024-01-06T13:09:27;6.30;95.60
1453;DHT22;720;47.738;7.998;2024-01-06T13:11:54;6.20;95.20
1453;DHT22;720;47.738;7.998;2024-01-06T13:14:21;6.20;95.90
1453;DHT22;720;47.738;7.998;2024-01-06T13:16:50;6.10;95.80
1453;DHT22;720;47.738;7.998;2024-01-06T13:19:15;6.20;96.20
1453;DHT22;720;47.738;7.998;2024-01-06T13:21:41;6.20;96.00
1453;DHT22;720;47.738;7.998;2024-01-06T13:24:07;6.30;96.00
1453;DHT22;720;47.738;7.998;2024-01-06T13:26:32;6.30;96.00
1453;DHT22;720;47.738;7.998;2024-01-06T13:28:59;6.20;95.90
1453;DHT22;720;47.738;7.998;2024-01-06T13:31:25;6.30;95.90
1453;DHT22;720;47.738;7.998;2024-01-06T13:33:50;6.40;96.10
1453;DHT22;720;47.738;7.998;2024-01-06T13:36:20;6.40;95.70
1453;DHT22;720;47.738;7.998;2024-01-06T13:38:46;6.40;95.50
1453;DHT22;720;47.738;7.998;2024-01-06T13:41:13;6.40;95.80
1453;DHT22;720;47.738;7.998;2024-01-06T13:43:39;6.40;95.60
1453;DHT22;720;47.738;7.998;2024-01-06T13:46:04;6.50;95.50
1453;DHT22;720;47.738;7.998;2024-01-06T13:48:30;6.40;95.60
1453;DHT22;720;47.738;7.998;2024-01-06T13:50:56;6.30;95.70
1453;DHT22;720;47.738;7.998;2024-01-06T13:53:22;6.10;95.90
1453;DHT22;720;47.738;7.998;2024-01-06T13:55:48;6.00;95.90
1453;DHT22;720;47.738;7.998;2024-01-06T13:58:13;5.90;96.20
1453;DHT22;720;47.738;7.998;2024-01-06T14:00:39;5.90;96.60
1453;DHT22;720;47.738;7.998;2024-01-06T14:03:05;5.90;96.60
1453;DHT22;720;47.738;7.998;2024-01-06T14:05:32;5.90;96.60
1453;DHT22;720;47.738;7.998;2024-01-06T14:07:58;5.80;96.90
1453;DHT22;720;47.738;7.998;2024-01-06T14:10:24;5.90;96.90
1453;DHT22;720;47.738;7.998;2024-01-06T14:12:49;6.00;96.40
1453;DHT22;720;47.738;7.998;2024-01-06T14:15:15;6.00;96.20
1453;DHT22;720;47.738;7.998;2024-01-06T14:17:41;6.00;96.30
1453;DHT22;720;47.738;7.998;2024-01-06T14:20:07;5.90;96.40
1453;DHT22;720;47.738;7.998;2024-01-06T14:22:34;6.00;96.30
1453;DHT22;720;47.738;7.998;2024-01-06T14:25:00;5.90;96.00
1453;DHT22;720;47.738;7.998;2024-01-06T14:27:26;5.80;96.60
1453;DHT22;720;47.738;7.998;2024-01-06T14:29:52;5.70;96.90
1453;DHT22;720;47.738;7.998;2024-01-06T14:32:21;5.60;97.50
1453;DHT22;720;47.738;7.998;2024-01-06T14:34:49;5.50;97.90
1453;DHT22;720;47.738;7.998;2024-01-06T14:37:15;5.50;98.10
1453;DHT22;720;47.738;7.998;2024-01-06T14:39:40;5.50;98.10
1453;DHT22;720;47.738;7.998;2024-01-06T14:42:06;5.50;98.30
1453;DHT22;720;47.738;7.998;2024-01-06T14:44:32;5.50;98.40
1453;DHT22;720;47.738;7.998;2024-01-06T14:46:58;5.60;97.60
1453;DHT22;720;47.738;7.998;2024-01-06T14:49:23;5.70;97.30
1453;DHT22;720;47.738;7.998;2024-01-06T14:51:49;5.70;96.30
1453;DHT22;720;47.738;7.998;2024-01-06T14:54:15;5.70;96.40
1453;DHT22;720;47.738;7.998;2024-01-06T14:56:40;5.70;96.60
1453;DHT22;720;47.738;7.998;2024-01-06T14:59:07;5.60;96.40
1453;DHT22;720;47.738;7.998;2024-01-06T15:01:32;5.40;96.40
1453;DHT22;720;47.738;7.998;2024-01-06T15:03:58;5.40;96.80
1453;DHT22;720;47.738;7.998;2024-01-06T15:06:23;5.40;97.00
1453;DHT22;720;47.738;7.998;2024-01-06T15:08:49;5.40;97.70
1453;DHT22;720;47.738;7.998;2024-01-06T15:11:15;5.40;97.50
1453;DHT22;720;47.738;7.998;2024-01-06T15:13:41;5.40;96.90
1453;DHT22;720;47.738;7.998;2024-01-06T15:16:06;5.30;96.80
1453;DHT22;720;47.738;7.998;2024-01-06T15:18:32;5.20;97.10
1453;DHT22;720;47.738;7.998;2024-01-06T15:20:58;5.20;97.00
1453;DHT22;720;47.738;7.998;2024-01-06T15:23:24;5.20;97.20
1453;DHT22;720;47.738;7.998;2024-01-06T15:25:50;5.20;97.10
1453;DHT22;720;47.738;7.998;2024-01-06T15:28:15;5.10;97.10
1453;DHT22;720;47.738;7.998;2024-01-06T15:30:41;5.20;97.40
1453;DHT22;720;47.738;7.998;2024-01-06T15:33:07;5.30;97.90
1453;DHT22;720;47.738;7.998;2024-01-06T15:35:33;5.20;97.60
1453;DHT22;720;47.738;7.998;2024-01-06T15:37:58;5.20;97.80
1453;DHT22;720;47.738;7.998;2024-01-06T15:40:25;5.20;97.50
1453;DHT22;720;47.738;7.998;2024-01-06T15:42:50;5.10;97.60
1453;DHT22;720;47.738;7.998;2024-01-06T15:45:16;5.20;97.90
1453;DHT22;720;47.738;7.998;2024-01-06T15:47:41;5.20;98.10
1453;DHT22;720;47.738;7.998;2024-01-06T15:50:07;5.20;97.80
1453;DHT22;720;47.738;7.998;2024-01-06T15:52:33;5.00;97.70
1453;DHT22;720;47.738;7.998;2024-01-06T15:54:59;5.10;97.70
1453;DHT22;720;47.738;7.998;2024-01-06T15:57:25;5.00;97.60
1453;DHT22;720;47.738;7.998;2024-01-06T15:59:53;5.10;97.60
1453;DHT22;720;47.738;7.998;2024-01-06T16:02:20;5.10;97.90
1453;DHT22;720;47.738;7.998;2024-01-06T16:04:45;5.00;98.30
1453;DHT22;720;47.738;7.998;2024-01-06T16:07:11;5.00;98.10
1453;DHT22;720;47.738;7.998;2024-01-06T16:09:37;5.00;98.40
1453;DHT22;720;47.738;7.998;2024-01-06T16:12:02;5.00;98.30
1453;DHT22;720;47.738;7.998;2024-01-06T16:14:34;5.10;98.40
1453;DHT22;720;47.738;7.998;2024-01-06T16:17:00;5.10;98.50
1453;DHT22;720;47.738;7.998;2024-01-06T16:19:28;5.20;98.60
1453;DHT22;720;47.738;7.998;2024-01-06T16:21:54;5.20;98.50
1453;DHT22;720;47.738;7.998;2024-01-06T16:24:20;5.20;98.30
1453;DHT22;720;47.738;7.998;2024-01-06T16:26:52;5.20;98.30
1453;DHT22;720;47.738;7.998;2024-01-06T16:29:17;5.10;98.70
1453;DHT22;720;47.738;7.998;2024-01-06T16:31:43;5.00;98.80
1453;DHT22;720;47.738;7.998;2024-01-06T16:34:09;5.00;98.90
1453;DHT22;720;47.738;7.998;2024-01-06T16:36:34;5.00;98.90